createdAt,value
2018-09-18T00:00:27.354Z,-55
2018-09-18T00:01:34.604Z,-54
2018-09-18T00:02:32.336Z,-55
2018-09-18T00:03:31.068Z,-55
2018-09-18T00:04:30.925Z,-56
2018-09-18T00:05:29.019Z,-55
2018-09-18T00:06:23.793Z,-56
2018-09-18T00:07:24.581Z,-55
2018-09-18T00:08:24.035Z,-56
2018-09-18T00:09:29.398Z,-56
2018-09-18T00:10:32.106Z,-55
2018-09-18T00:11:29.859Z,-56
2018-09-18T00:12:27.917Z,-54
2018-09-18T00:13:26.101Z,-55
2018-09-18T00:14:27.488Z,-57
2018-09-18T00:15:26.442Z,-55
2018-09-18T00:16:25.753Z,-55
2018-09-18T00:18:45.563Z,-55
2018-09-18T00:19:44.292Z,-54
2018-09-18T00:20:42.185Z,-55
2018-09-18T00:21:41.257Z,-55
2018-09-18T00:22:39.836Z,-55
2018-09-18T00:23:40.676Z,-55
2018-09-18T00:24:39.349Z,-55
2018-09-18T00:25:40.009Z,-55
2018-09-18T00:26:55.423Z,-55
2018-09-18T00:29:10.706Z,-54
2018-09-18T00:29:40.564Z,-54
2018-09-18T00:30:43.521Z,-55
2018-09-18T00:31:41.216Z,-55
2018-09-18T00:32:39.348Z,-55
2018-09-18T00:33:40.915Z,-55
2018-09-18T00:34:38.872Z,-55
2018-09-18T00:35:44.119Z,-56
2018-09-18T00:36:40.895Z,-55
2018-09-18T00:37:42.176Z,-55
2018-09-18T00:39:51.088Z,-54
2018-09-18T00:40:52.185Z,-54
2018-09-18T00:41:50.762Z,-53
2018-09-18T00:42:52.227Z,-53
2018-09-18T00:43:50.427Z,-53
2018-09-18T00:44:48.740Z,-53
2018-09-18T00:45:49.508Z,-54
2018-09-18T00:46:51.659Z,-53
2018-09-18T00:47:49.742Z,-58
2018-09-18T00:49:56.059Z,-56
2018-09-18T00:51:00.995Z,-54
2018-09-18T00:51:59.611Z,-54
2018-09-18T00:53:00.221Z,-54
2018-09-18T00:54:00.407Z,-55
2018-09-18T00:55:11.839Z,-54
2018-09-18T00:56:15.520Z,-54
2018-09-18T00:57:11.976Z,-55
2018-09-18T00:58:16.036Z,-55
2018-09-18T00:59:19.174Z,-54
2018-09-18T01:00:17.193Z,-54
2018-09-18T01:01:16.349Z,-56
2018-09-18T01:02:15.104Z,-56
2018-09-18T01:03:11.376Z,-55
2018-09-18T01:04:09.014Z,-55
2018-09-18T01:05:07.575Z,-55
2018-09-18T01:06:10.629Z,-55
2018-09-18T01:07:11.157Z,-55
2018-09-18T01:08:14.079Z,-57
2018-09-18T01:09:09.090Z,-56
2018-09-18T01:11:23.232Z,-56
2018-09-18T01:12:21.639Z,-55
2018-09-18T01:13:21.132Z,-55
2018-09-18T01:14:23.471Z,-55
2018-09-18T01:15:21.856Z,-55
2018-09-18T01:16:21.928Z,-55
2018-09-18T01:17:23.811Z,-55
2018-09-18T01:18:28.219Z,-55
2018-09-18T01:19:29.957Z,-54
2018-09-18T01:20:28.188Z,-57
2018-09-18T01:21:26.210Z,-54
2018-09-18T01:23:56.835Z,-54
2018-09-18T01:24:54.936Z,-55
2018-09-18T01:25:56.330Z,-53
2018-09-18T01:26:56.741Z,-55
2018-09-18T01:27:59.070Z,-54
2018-09-18T01:29:01.850Z,-54
2018-09-18T01:30:08.244Z,-53
2018-09-18T01:31:10.448Z,-54
2018-09-18T01:32:09.492Z,-54
2018-09-18T01:33:09.591Z,-54
2018-09-18T01:35:18.520Z,-55
2018-09-18T01:36:22.431Z,-54
2018-09-18T01:37:21.164Z,-54
2018-09-18T01:38:20.037Z,-54
2018-09-18T01:39:21.854Z,-53
2018-09-18T01:40:20.423Z,-54
2018-09-18T01:41:15.608Z,-55
2018-09-18T01:42:21.627Z,-54
2018-09-18T01:43:19.370Z,-54
2018-09-18T01:45:34.507Z,-55
2018-09-18T01:46:33.073Z,-55
2018-09-18T01:47:38.094Z,-55
2018-09-18T01:48:38.040Z,-55
2018-09-18T01:49:32.591Z,-55
2018-09-18T01:50:32.922Z,-56
2018-09-18T01:51:33.678Z,-55
2018-09-18T01:52:36.036Z,-55
2018-09-18T01:53:33.697Z,-55
2018-09-18T01:54:33.242Z,-55
2018-09-18T01:56:45.121Z,-55
2018-09-18T01:57:48.476Z,-54
2018-09-18T01:58:49.312Z,-54
2018-09-18T01:59:49.546Z,-55
2018-09-18T02:00:56.569Z,-54
2018-09-18T02:02:02.368Z,-55
2018-09-18T02:03:01.131Z,-55
2018-09-18T02:04:01.589Z,-55
2018-09-18T02:04:59.436Z,-56
2018-09-18T02:05:59.297Z,-55
2018-09-18T02:06:56.936Z,-56
2018-09-18T02:09:14.347Z,-56
2018-09-18T02:10:16.737Z,-56
2018-09-18T02:11:15.460Z,-55
2018-09-18T02:12:14.558Z,-55
2018-09-18T02:13:13.942Z,-56
2018-09-18T02:14:12.103Z,-55
2018-09-18T02:15:11.873Z,-55
2018-09-18T02:16:17.060Z,-55
2018-09-18T02:17:15.475Z,-55
2018-09-18T02:18:11.236Z,-54
2018-09-18T02:19:16.775Z,-56
2018-09-18T02:21:27.620Z,-55
2018-09-18T02:22:26.812Z,-55
2018-09-18T02:23:32.163Z,-55
2018-09-18T02:24:30.532Z,-55
2018-09-18T02:25:31.518Z,-54
2018-09-18T02:26:32.053Z,-55
2018-09-18T02:27:29.373Z,-54
2018-09-18T02:28:29.600Z,-56
2018-09-18T02:29:34.506Z,-55
2018-09-18T02:30:33.763Z,-55
2018-09-18T02:31:34.849Z,-55
2018-09-18T02:32:37.509Z,-55
2018-09-18T02:33:38.689Z,-55
2018-09-18T02:35:50.119Z,-54
2018-09-18T02:36:48.531Z,-53
2018-09-18T02:37:46.878Z,-54
2018-09-18T02:38:46.236Z,-54
2018-09-18T02:39:45.039Z,-54
2018-09-18T02:40:52.836Z,-54
2018-09-18T02:41:50.697Z,-53
2018-09-18T02:42:50.524Z,-53
2018-09-18T02:43:49.172Z,-54
2018-09-18T02:44:46.956Z,-54
2018-09-18T02:45:45.100Z,-54
2018-09-18T02:46:42.888Z,-54
2018-09-18T02:48:56.623Z,-54
2018-09-18T02:49:56.286Z,-54
2018-09-18T02:50:55.984Z,-53
2018-09-18T02:51:55.435Z,-54
2018-09-18T02:52:59.474Z,-54
2018-09-18T02:54:00.699Z,-54
2018-09-18T02:55:02.885Z,-54
2018-09-18T02:56:08.282Z,-54
2018-09-18T02:57:06.245Z,-54
2018-09-18T02:58:13.332Z,-54
2018-09-18T03:00:31.985Z,-55
2018-09-18T03:01:31.363Z,-55
2018-09-18T03:02:33.527Z,-55
2018-09-18T03:03:31.635Z,-54
2018-09-18T03:04:37.835Z,-55
2018-09-18T03:05:37.978Z,-55
2018-09-18T03:06:40.800Z,-54
2018-09-18T03:07:42.119Z,-55
2018-09-18T03:08:43.252Z,-55
2018-09-18T03:09:38.726Z,-55
2018-09-18T03:10:43.064Z,-54
2018-09-18T03:12:55.223Z,-56
2018-09-18T03:13:59.325Z,-56
2018-09-18T03:15:00.999Z,-55
2018-09-18T03:16:00.485Z,-55
2018-09-18T03:17:00.023Z,-55
2018-09-18T03:18:08.139Z,-54
2018-09-18T03:19:08.824Z,-56
2018-09-18T03:20:13.543Z,-55
2018-09-18T03:21:14.551Z,-54
2018-09-18T03:22:13.024Z,-54
2018-09-18T03:23:10.003Z,-54
2018-09-18T03:25:23.905Z,-55
2018-09-18T03:26:24.581Z,-54
2018-09-18T03:27:23.316Z,-54
2018-09-18T03:28:26.194Z,-54
2018-09-18T03:29:27.221Z,-54
2018-09-18T03:30:23.841Z,-55
2018-09-18T03:31:25.272Z,-55
2018-09-18T03:32:23.593Z,-54
2018-09-18T03:33:22.121Z,-53
2018-09-18T03:35:43.311Z,-55
2018-09-18T03:36:43.816Z,-55
2018-09-18T03:37:45.275Z,-55
2018-09-18T03:38:47.587Z,-54
2018-09-18T03:39:50.936Z,-54
2018-09-18T03:40:50.698Z,-55
2018-09-18T03:41:52.180Z,-55
2018-09-18T03:42:52.413Z,-53
2018-09-18T03:43:50.779Z,-53
2018-09-18T03:44:45.216Z,-54
2018-09-18T03:46:57.944Z,-54
2018-09-18T03:47:56.877Z,-54
2018-09-18T03:48:54.676Z,-53
2018-09-18T03:49:52.234Z,-53
2018-09-18T03:50:54.187Z,-54
2018-09-18T03:52:00.411Z,-53
2018-09-18T03:53:06.780Z,-54
2018-09-18T03:54:05.516Z,-54
2018-09-18T03:55:03.607Z,-54
2018-09-18T03:55:59.836Z,-54
2018-09-18T03:58:15.048Z,-54
2018-09-18T03:59:12.767Z,-55
2018-09-18T04:00:13.161Z,-55
2018-09-18T04:01:11.678Z,-55
2018-09-18T04:02:09.838Z,-55
2018-09-18T04:03:11.694Z,-55
2018-09-18T04:04:09.440Z,-55
2018-09-18T04:05:09.909Z,-56
2018-09-18T04:06:07.681Z,-55
2018-09-18T04:08:16.092Z,-56
2018-09-18T04:09:27.768Z,-55
2018-09-18T04:10:26.977Z,-55
2018-09-18T04:11:26.964Z,-55
2018-09-18T04:12:24.533Z,-55
2018-09-18T04:13:25.216Z,-55
2018-09-18T04:14:28.464Z,-54
2018-09-18T04:15:26.506Z,-55
2018-09-18T04:16:24.578Z,-55
2018-09-18T04:17:19.027Z,-55
2018-09-18T04:19:27.154Z,-55
2018-09-18T04:20:29.690Z,-55
2018-09-18T04:21:31.059Z,-54
2018-09-18T04:22:34.380Z,-55
2018-09-18T04:23:33.981Z,-55
2018-09-18T04:24:38.820Z,-55
2018-09-18T04:25:38.943Z,-55
2018-09-18T04:26:44.706Z,-56
2018-09-18T04:27:46.128Z,-55
2018-09-18T04:28:48.576Z,-55
2018-09-18T04:29:52.749Z,-55
2018-09-18T04:32:04.476Z,-54
2018-09-18T04:33:03.737Z,-54
2018-09-18T04:34:01.352Z,-54
2018-09-18T04:35:00.756Z,-53
2018-09-18T04:36:01.987Z,-54
2018-09-18T04:36:59.462Z,-53
2018-09-18T04:37:59.837Z,-54
2018-09-18T04:39:02.639Z,-53
2018-09-18T04:40:02.369Z,-54
2018-09-18T04:41:01.727Z,-54
2018-09-18T04:43:10.746Z,-53
2018-09-18T04:44:11.243Z,-54
2018-09-18T04:45:12.252Z,-54
2018-09-18T04:46:10.857Z,-54
2018-09-18T04:47:08.151Z,-53
2018-09-18T04:48:10.072Z,-55
2018-09-18T04:49:09.884Z,-54
2018-09-18T04:50:08.608Z,-54
2018-09-18T04:51:10.466Z,-55
2018-09-18T04:52:08.892Z,-53
2018-09-18T04:54:18.720Z,-55
2018-09-18T04:55:16.765Z,-54
2018-09-18T04:56:14.978Z,-54
2018-09-18T04:57:25.284Z,-54
2018-09-18T04:58:24.853Z,-54
2018-09-18T04:59:22.560Z,-54
2018-09-18T05:00:19.084Z,-55
2018-09-18T05:01:25.158Z,-55
2018-09-18T05:02:22.843Z,-54
2018-09-18T05:03:18.650Z,-55
2018-09-18T05:05:38.275Z,-55
2018-09-18T05:06:43.500Z,-54
2018-09-18T05:07:39.381Z,-56
2018-09-18T05:08:40.576Z,-55
2018-09-18T05:09:39.436Z,-55
2018-09-18T05:10:37.868Z,-54
2018-09-18T05:11:36.168Z,-55
2018-09-18T05:12:34.160Z,-55
2018-09-18T05:13:32.014Z,-55
2018-09-18T05:15:39.785Z,-55
2018-09-18T05:16:43.296Z,-55
2018-09-18T05:17:40.924Z,-55
2018-09-18T05:18:38.709Z,-55
2018-09-18T05:19:38.739Z,-55
2018-09-18T05:20:46.007Z,-55
2018-09-18T05:21:44.308Z,-54
2018-09-18T05:22:42.980Z,-54
2018-09-18T05:23:39.877Z,-55
2018-09-18T05:25:53.324Z,-54
2018-09-18T05:26:51.992Z,-54
2018-09-18T05:27:50.825Z,-53
2018-09-18T05:28:55.005Z,-54
2018-09-18T05:29:56.351Z,-54
2018-09-18T05:31:02.825Z,-53
2018-09-18T05:32:00.348Z,-54
2018-09-18T05:33:04.445Z,-54
2018-09-18T05:34:02.540Z,-53
2018-09-18T05:35:00.103Z,-53
2018-09-18T05:35:57.312Z,-53
2018-09-18T05:37:02.449Z,-53
2018-09-18T05:37:56.920Z,-53
2018-09-18T05:39:01.343Z,-54
2018-09-18T05:39:56.042Z,-54
2018-09-18T05:40:53.376Z,-53
2018-09-18T05:43:12.235Z,-54
2018-09-18T05:44:20.145Z,-54
2018-09-18T05:45:18.652Z,-53
2018-09-18T05:46:17.172Z,-54
2018-09-18T05:47:12.109Z,-55
2018-09-18T05:48:22.610Z,-56
2018-09-18T05:49:20.988Z,-54
2018-09-18T05:50:18.858Z,-53
2018-09-18T05:51:16.690Z,-54
2018-09-18T05:52:23.079Z,-54
2018-09-18T05:53:17.916Z,-54
2018-09-18T05:55:25.175Z,-55
2018-09-18T05:56:25.250Z,-55
2018-09-18T05:57:25.803Z,-54
2018-09-18T05:58:27.342Z,-55
2018-09-18T05:59:26.626Z,-55
2018-09-18T06:00:26.041Z,-55
2018-09-18T06:01:24.492Z,-54
2018-09-18T06:02:23.167Z,-56
2018-09-18T06:03:26.566Z,-56
2018-09-18T06:04:27.684Z,-55
2018-09-18T06:05:27.725Z,-54
2018-09-18T06:06:23.799Z,-55
2018-09-18T06:07:25.443Z,-55
2018-09-18T06:09:34.760Z,-55
2018-09-18T06:10:37.223Z,-54
2018-09-18T06:11:37.469Z,-55
2018-09-18T06:12:37.210Z,-59
2018-09-18T06:13:34.992Z,-55
2018-09-18T06:14:33.516Z,-55
2018-09-18T06:15:35.828Z,-54
2018-09-18T06:16:34.251Z,-54
2018-09-18T06:17:32.720Z,-54
2018-09-18T06:18:30.664Z,-54
2018-09-18T06:20:43.487Z,-55
2018-09-18T06:21:43.675Z,-55
2018-09-18T06:22:44.145Z,-55
2018-09-18T06:23:43.056Z,-55
2018-09-18T06:24:46.268Z,-54
2018-09-18T06:25:45.466Z,-55
2018-09-18T06:26:43.282Z,-54
2018-09-18T06:27:43.879Z,-55
2018-09-18T06:28:50.220Z,-55
2018-09-18T06:29:47.916Z,-55
2018-09-18T06:31:58.113Z,-55
2018-09-18T06:32:56.847Z,-55
2018-09-18T06:33:55.877Z,-55
2018-09-18T06:34:57.322Z,-55
2018-09-18T06:35:55.849Z,-54
2018-09-18T06:36:55.647Z,-55
2018-09-18T06:37:53.267Z,-54
2018-09-18T06:38:49.974Z,-54
2018-09-18T06:39:52.341Z,-55
2018-09-18T06:42:04.650Z,-55
2018-09-18T06:43:02.880Z,-55
2018-09-18T06:44:00.980Z,-55
2018-09-18T06:44:59.466Z,-54
2018-09-18T06:45:57.611Z,-53
2018-09-18T06:46:57.210Z,-54
2018-09-18T06:47:56.931Z,-53
2018-09-18T06:48:54.978Z,-54
2018-09-18T06:49:54.549Z,-54
2018-09-18T06:50:50.182Z,-54
2018-09-18T06:51:49.226Z,-54
2018-09-18T06:54:05.193Z,-54
2018-09-18T06:55:03.879Z,-54
2018-09-18T06:56:02.518Z,-53
2018-09-18T06:57:00.692Z,-54
2018-09-18T06:57:56.650Z,-54
2018-09-18T06:58:57.943Z,-55
2018-09-18T06:59:56.130Z,-55
2018-09-18T07:00:56.975Z,-54
2018-09-18T07:02:01.859Z,-55
2018-09-18T07:04:11.882Z,-56
2018-09-18T07:05:10.595Z,-56
2018-09-18T07:06:10.928Z,-55
2018-09-18T07:07:10.607Z,-56
2018-09-18T07:08:13.219Z,-56
2018-09-18T07:09:17.341Z,-55
2018-09-18T07:10:18.505Z,-55
2018-09-18T07:11:19.223Z,-56
2018-09-18T07:12:23.829Z,-56
2018-09-18T07:13:31.143Z,-56
2018-09-18T07:13:42.939Z,-54
2018-09-18T07:14:41.697Z,-53
2018-09-18T07:15:40.081Z,-54
2018-09-18T07:16:43.092Z,-55
2018-09-18T07:19:04.922Z,-56
2018-09-18T07:20:05.072Z,-55
2018-09-18T07:21:03.675Z,-54
2018-09-18T07:22:06.721Z,-55
2018-09-18T07:23:05.664Z,-54
2018-09-18T07:24:05.996Z,-55
2018-09-18T07:25:05.157Z,-54
2018-09-18T07:26:03.960Z,-55
2018-09-18T07:27:01.372Z,-54
2018-09-18T07:28:15.738Z,-55
2018-09-18T07:29:11.102Z,-54
2018-09-18T07:31:21.412Z,-55
2018-09-18T07:32:19.373Z,-53
2018-09-18T07:33:19.580Z,-54
2018-09-18T07:34:21.149Z,-55
2018-09-18T07:35:18.927Z,-54
2018-09-18T07:36:18.796Z,-54
2018-09-18T07:37:16.945Z,-55
2018-09-18T07:38:17.945Z,-54
2018-09-18T07:39:12.961Z,-54
2018-09-18T07:41:19.245Z,-55
2018-09-18T07:42:17.474Z,-54
2018-09-18T07:43:15.187Z,-53
2018-09-18T07:44:21.775Z,-53
2018-09-18T07:45:23.939Z,-54
2018-09-18T07:46:22.876Z,-54
2018-09-18T07:47:23.057Z,-51
2018-09-18T07:48:20.661Z,-54
2018-09-18T07:49:20.798Z,-54
2018-09-18T07:50:20.721Z,-53
2018-09-18T07:51:22.410Z,-53
2018-09-18T07:52:22.644Z,-53
2018-09-18T07:53:31.338Z,-53
2018-09-18T07:54:30.040Z,-54
2018-09-18T07:56:40.469Z,-56
2018-09-18T07:57:40.089Z,-56
2018-09-18T07:58:42.736Z,-55
2018-09-18T07:59:40.506Z,-58
2018-09-18T08:00:41.241Z,-58
2018-09-18T08:01:41.212Z,-57
2018-09-18T08:02:39.271Z,-57
2018-09-18T08:03:42.110Z,-58
2018-09-18T08:04:40.954Z,-59
2018-09-18T08:05:38.736Z,-57
2018-09-18T08:06:38.903Z,-58
2018-09-18T08:07:34.058Z,-59
2018-09-18T08:09:47.170Z,-62
2018-09-18T08:10:47.265Z,-63
2018-09-18T08:11:45.854Z,-63
2018-09-18T08:12:44.400Z,-63
2018-09-18T08:13:42.457Z,-61
2018-09-18T08:14:40.314Z,-60
2018-09-18T08:15:39.002Z,-60
2018-09-18T08:16:36.949Z,-60
2018-09-18T08:17:34.859Z,-59
2018-09-18T08:19:45.413Z,-58
2018-09-18T08:20:50.575Z,-59
2018-09-18T08:21:48.792Z,-57
2018-09-18T08:22:50.411Z,-64
2018-09-18T08:23:57.353Z,-61
2018-09-18T08:24:55.250Z,-63
2018-09-18T08:25:59.695Z,-58
2018-09-18T08:26:57.373Z,-66
2018-09-18T08:27:57.739Z,-66
2018-09-18T08:29:01.016Z,-67
2018-09-18T08:29:59.873Z,-67
2018-09-18T08:30:58.776Z,-67
2018-09-18T08:31:55.212Z,-69
2018-09-18T08:32:59.019Z,-68
2018-09-18T08:34:00.022Z,-68
2018-09-18T08:34:54.736Z,-68
2018-09-18T08:37:01.818Z,-69
2018-09-18T08:38:01.433Z,-67
2018-09-18T08:38:59.763Z,-67
2018-09-18T08:40:00.260Z,-67
2018-09-18T08:40:59.615Z,-66
2018-09-18T08:42:05.991Z,-68
2018-09-18T08:43:04.547Z,-68
2018-09-18T08:44:06.445Z,-66
2018-09-18T08:45:05.216Z,-65
2018-09-18T08:46:05.989Z,-67
2018-09-18T08:48:20.939Z,-59
2018-09-18T08:49:24.577Z,-58
2018-09-18T08:50:26.692Z,-58
2018-09-18T08:51:23.847Z,-58
2018-09-18T08:52:21.458Z,-58
2018-09-18T08:53:20.179Z,-58
2018-09-18T08:54:18.085Z,-58
2018-09-18T08:55:16.337Z,-56
2018-09-18T08:56:14.229Z,-60
2018-09-18T08:57:14.946Z,-59
2018-09-18T08:58:13.061Z,-58
2018-09-18T08:59:10.713Z,-59
2018-09-18T09:00:05.189Z,-60
2018-09-18T09:01:05.334Z,-59
2018-09-18T09:03:18.562Z,-59
2018-09-18T09:04:16.556Z,-58
2018-09-18T09:05:14.372Z,-58
2018-09-18T09:06:12.786Z,-61
2018-09-18T09:07:14.070Z,-61
2018-09-18T09:08:13.314Z,-62
2018-09-18T09:09:12.251Z,-57
2018-09-18T09:10:13.471Z,-64
2018-09-18T09:11:16.451Z,-64
2018-09-18T09:13:25.472Z,-59
2018-09-18T09:14:28.114Z,-60
2018-09-18T09:15:26.331Z,-60
2018-09-18T09:16:25.313Z,-61
2018-09-18T09:17:22.930Z,-62
2018-09-18T09:18:21.306Z,-59
2018-09-18T09:19:19.135Z,-61
2018-09-18T09:20:27.848Z,-59
2018-09-18T09:21:26.069Z,-59
2018-09-18T09:22:24.072Z,-59
2018-09-18T09:23:22.544Z,-57
2018-09-18T09:24:23.922Z,-58
2018-09-18T09:25:24.120Z,-57
2018-09-18T09:27:32.371Z,-60
2018-09-18T09:28:30.756Z,-59
2018-09-18T09:29:28.751Z,-60
2018-09-18T09:30:24.778Z,-58
2018-09-18T09:31:27.481Z,-59
2018-09-18T09:32:27.442Z,-58
2018-09-18T09:33:26.101Z,-59
2018-09-18T09:34:23.657Z,-56
2018-09-18T09:35:25.973Z,-57
2018-09-18T09:36:21.800Z,-56
2018-09-18T09:38:32.801Z,-56
2018-09-18T09:39:30.796Z,-57
2018-09-18T09:40:28.602Z,-57
2018-09-18T09:41:26.320Z,-57
2018-09-18T09:42:24.728Z,-57
2018-09-18T09:43:23.882Z,-57
2018-09-18T09:44:19.686Z,-57
2018-09-18T09:45:32.334Z,-56
2018-09-18T09:46:30.873Z,-58
2018-09-18T09:47:29.255Z,-58
2018-09-18T09:49:41.462Z,-57
2018-09-18T09:50:39.167Z,-57
2018-09-18T09:51:39.090Z,-58
2018-09-18T09:52:53.577Z,-57
2018-09-18T09:53:51.341Z,-56
2018-09-18T09:54:50.191Z,-57
2018-09-18T09:55:47.285Z,-59
2018-09-18T09:56:47.947Z,-59
2018-09-18T09:57:46.812Z,-58
2018-09-18T09:58:48.641Z,-57
2018-09-18T09:59:53.158Z,-56
2018-09-18T10:00:48.111Z,-58
2018-09-18T10:01:48.476Z,-56
2018-09-18T10:02:51.749Z,-51
2018-09-18T10:03:55.996Z,-50
2018-09-18T10:06:07.653Z,-51
2018-09-18T10:07:06.920Z,-51
2018-09-18T10:08:05.289Z,-50
2018-09-18T10:09:07.124Z,-51
2018-09-18T10:10:06.398Z,-50
2018-09-18T10:11:11.484Z,-50
2018-09-18T10:12:11.415Z,-50
2018-09-18T10:13:10.969Z,-50
2018-09-18T10:14:05.550Z,-50
2018-09-18T10:15:05.657Z,-52
2018-09-18T10:16:05.835Z,-50
2018-09-18T10:17:00.286Z,-50
2018-09-18T10:18:00.090Z,-50
2018-09-18T10:18:58.840Z,-49
2018-09-18T10:19:57.133Z,-52
2018-09-18T10:22:05.151Z,-50
2018-09-18T10:23:03.659Z,-50
2018-09-18T10:24:01.949Z,-50
2018-09-18T10:25:01.369Z,-50
2018-09-18T10:26:00.330Z,-50
2018-09-18T10:26:58.506Z,-49
2018-09-18T10:27:58.021Z,-49
2018-09-18T10:28:53.855Z,-58
2018-09-18T10:29:55.056Z,-59
2018-09-18T10:30:57.441Z,-57
2018-09-18T10:32:00.883Z,-55
2018-09-18T10:34:10.081Z,-55
2018-09-18T10:35:08.423Z,-55
2018-09-18T10:36:06.552Z,-57
2018-09-18T10:37:07.470Z,-56
2018-09-18T10:38:07.560Z,-55
2018-09-18T10:39:06.179Z,-54
2018-09-18T10:40:08.461Z,-54
2018-09-18T10:41:06.859Z,-54
2018-09-18T10:42:05.617Z,-55
2018-09-18T10:43:00.963Z,-54
2018-09-18T10:45:17.107Z,-55
2018-09-18T10:46:15.135Z,-56
2018-09-18T10:47:13.350Z,-56
2018-09-18T10:48:12.511Z,-55
2018-09-18T10:49:19.323Z,-55
2018-09-18T10:50:18.575Z,-56
2018-09-18T10:51:18.871Z,-56
2018-09-18T10:52:16.546Z,-57
2018-09-18T10:53:14.802Z,-55
2018-09-18T10:54:14.000Z,-56
2018-09-18T10:56:24.361Z,-58
2018-09-18T10:57:27.731Z,-58
2018-09-18T10:58:29.848Z,-57
2018-09-18T10:59:28.042Z,-58
2018-09-18T11:00:27.382Z,-59
2018-09-18T11:01:25.657Z,-63
2018-09-18T11:02:23.544Z,-66
2018-09-18T11:03:21.458Z,-67
2018-09-18T11:04:23.710Z,-67
2018-09-18T11:05:24.175Z,-66
2018-09-18T11:06:24.539Z,-65
2018-09-18T11:07:24.756Z,-65
2018-09-18T11:09:34.121Z,-65
2018-09-18T11:10:32.075Z,-67
2018-09-18T11:11:30.541Z,-66
2018-09-18T11:12:29.392Z,-65
2018-09-18T11:13:33.987Z,-64
2018-09-18T11:14:31.687Z,-65
2018-09-18T11:15:29.954Z,-64
2018-09-18T11:16:27.759Z,-64
2018-09-18T11:17:27.716Z,-65
2018-09-18T11:18:28.711Z,-62
2018-09-18T11:19:27.041Z,-66
2018-09-18T11:20:21.848Z,-64
2018-09-18T11:22:32.513Z,-66
2018-09-18T11:23:30.851Z,-63
2018-09-18T11:24:29.937Z,-66
2018-09-18T11:25:34.642Z,-64
2018-09-18T11:26:38.233Z,-65
2018-09-18T11:27:36.269Z,-66
2018-09-18T11:28:37.149Z,-64
2018-09-18T11:29:47.976Z,-63
2018-09-18T11:30:46.494Z,-66
2018-09-18T11:31:49.528Z,-65
2018-09-18T11:32:49.931Z,-65
2018-09-18T11:33:47.684Z,-63
2018-09-18T11:34:43.272Z,-64
2018-09-18T11:36:53.416Z,-60
2018-09-18T11:37:51.753Z,-60
2018-09-18T11:38:51.262Z,-59
2018-09-18T11:39:49.724Z,-59
2018-09-18T11:40:49.668Z,-60
2018-09-18T11:41:49.104Z,-60
2018-09-18T11:42:47.912Z,-61
2018-09-18T11:43:49.600Z,-61
2018-09-18T11:44:47.220Z,-59
2018-09-18T11:45:42.368Z,-61
2018-09-18T11:47:58.886Z,-60
2018-09-18T11:48:58.554Z,-58
2018-09-18T11:49:57.475Z,-58
2018-09-18T11:50:56.369Z,-61
2018-09-18T11:51:55.691Z,-61
2018-09-18T11:52:56.161Z,-61
2018-09-18T11:53:54.284Z,-59
2018-09-18T11:54:53.476Z,-58
2018-09-18T11:55:48.009Z,-58
2018-09-18T11:57:55.929Z,-60
2018-09-18T11:58:59.912Z,-59
2018-09-18T12:00:00.352Z,-61
2018-09-18T12:00:59.919Z,-61
2018-09-18T12:01:57.611Z,-61
2018-09-18T12:02:59.244Z,-61
2018-09-18T12:04:01.488Z,-62
2018-09-18T12:05:08.152Z,-62
2018-09-18T12:06:06.229Z,-62
2018-09-18T12:07:06.058Z,-64
2018-09-18T12:08:04.685Z,-62
2018-09-18T12:10:13.614Z,-63
2018-09-18T12:11:11.604Z,-63
2018-09-18T12:12:16.210Z,-63
2018-09-18T12:13:17.097Z,-63
2018-09-18T12:14:09.191Z,-63
2018-09-18T12:15:10.464Z,-63
2018-09-18T12:16:11.504Z,-62
2018-09-18T12:17:14.961Z,-63
2018-09-18T12:18:15.013Z,-63
2018-09-18T12:19:29.687Z,-64
2018-09-18T12:21:40.933Z,-65
2018-09-18T12:22:45.832Z,-66
2018-09-18T12:23:45.003Z,-63
2018-09-18T12:24:51.158Z,-59
2018-09-18T12:25:52.488Z,-54
2018-09-18T12:26:55.174Z,-54
2018-09-18T12:27:53.543Z,-56
2018-09-18T12:28:52.808Z,-55
2018-09-18T12:29:51.632Z,-56
2018-09-18T12:30:46.211Z,-56
2018-09-18T12:32:59.905Z,-56
2018-09-18T12:33:58.595Z,-56
2018-09-18T12:35:01.723Z,-56
2018-09-18T12:36:01.323Z,-55
2018-09-18T12:36:58.990Z,-56
2018-09-18T12:38:06.127Z,-59
2018-09-18T12:39:04.763Z,-58
2018-09-18T12:40:03.320Z,-59
2018-09-18T12:41:04.627Z,-60
2018-09-18T12:43:10.765Z,-62
2018-09-18T12:44:10.838Z,-60
2018-09-18T12:45:08.507Z,-58
2018-09-18T12:46:06.042Z,-56
2018-09-18T12:47:04.434Z,-65
2018-09-18T12:48:02.977Z,-66
2018-09-18T12:49:00.811Z,-65
2018-09-18T12:50:02.679Z,-65
2018-09-18T12:50:59.990Z,-66
2018-09-18T12:51:58.849Z,-67
2018-09-18T12:52:56.865Z,-66
2018-09-18T12:55:09.272Z,-65
2018-09-18T12:56:10.871Z,-65
2018-09-18T12:57:11.345Z,-65
2018-09-18T12:58:17.985Z,-64
2018-09-18T12:59:20.676Z,-65
2018-09-18T13:00:20.157Z,-64
2018-09-18T13:01:18.604Z,-66
2018-09-18T13:02:17.336Z,-67
2018-09-18T13:03:15.770Z,-68
2018-09-18T13:04:13.816Z,-67
2018-09-18T13:05:09.109Z,-66
2018-09-18T13:07:25.487Z,-66
2018-09-18T13:08:26.421Z,-66
2018-09-18T13:09:31.565Z,-67
2018-09-18T13:10:29.034Z,-66
2018-09-18T13:11:31.067Z,-63
2018-09-18T13:12:26.197Z,-45
2018-09-18T13:13:29.176Z,-46
2018-09-18T13:14:33.537Z,-47
2018-09-18T13:15:32.417Z,-46
2018-09-18T13:16:34.866Z,-46
2018-09-18T13:17:33.159Z,-44
2018-09-18T13:18:31.397Z,-44
2018-09-18T13:19:26.305Z,-46
2018-09-18T13:20:27.396Z,-46
2018-09-18T13:21:28.884Z,-45
2018-09-18T13:23:48.081Z,-49
2018-09-18T13:24:48.425Z,-51
2018-09-18T13:25:49.836Z,-46
2018-09-18T13:26:49.286Z,-46
2018-09-18T13:27:49.289Z,-45
2018-09-18T13:28:51.663Z,-45
2018-09-18T13:29:47.398Z,-45
2018-09-18T13:30:48.408Z,-47
2018-09-18T13:31:46.699Z,-46
2018-09-18T13:32:49.322Z,-45
2018-09-18T13:33:45.058Z,-43
2018-09-18T13:35:57.519Z,-46
2018-09-18T13:36:56.709Z,-46
2018-09-18T13:37:57.616Z,-46
2018-09-18T13:38:57.659Z,-45
2018-09-18T13:40:00.226Z,-49
2018-09-18T13:40:59.509Z,-46
2018-09-18T13:42:01.681Z,-46
2018-09-18T13:43:00.792Z,-47
2018-09-18T13:43:59.848Z,-47
2018-09-18T13:44:55.421Z,-46
2018-09-18T13:45:54.751Z,-46
2018-09-18T13:46:57.907Z,-46
2018-09-18T13:49:12.377Z,-46
2018-09-18T13:50:16.108Z,-52
2018-09-18T13:51:15.437Z,-52
2018-09-18T13:52:22.652Z,-57
2018-09-18T13:53:20.414Z,-49
2018-09-18T13:54:19.062Z,-48
2018-09-18T13:55:18.824Z,-46
2018-09-18T13:56:16.501Z,-47
2018-09-18T13:57:14.496Z,-48
2018-09-18T13:58:13.340Z,-46
2018-09-18T14:00:24.208Z,-49
2018-09-18T14:01:23.699Z,-48
2018-09-18T14:02:21.497Z,-48
2018-09-18T14:02:35.160Z,-48
2018-09-18T14:03:33.315Z,-48
2018-09-18T14:04:38.154Z,-48
2018-09-18T14:05:37.416Z,-47
2018-09-18T14:06:35.393Z,-48
2018-09-18T14:07:33.238Z,-48
2018-09-18T14:08:31.151Z,-47
2018-09-18T14:09:26.379Z,-48
2018-09-18T14:10:37.329Z,-45
2018-09-18T14:12:48.070Z,-47
2018-09-18T14:13:51.163Z,-47
2018-09-18T14:14:50.977Z,-47
2018-09-18T14:15:48.864Z,-49
2018-09-18T14:16:47.380Z,-46
2018-09-18T14:17:45.392Z,-49
2018-09-18T14:18:43.323Z,-48
2018-09-18T14:19:41.097Z,-47
2018-09-18T14:20:41.127Z,-47
2018-09-18T14:21:35.974Z,-48
2018-09-18T14:22:34.152Z,-48
2018-09-18T14:24:52.717Z,-47
2018-09-18T14:25:55.212Z,-47
2018-09-18T14:26:54.507Z,-47
2018-09-18T14:27:54.898Z,-47
2018-09-18T14:28:53.632Z,-48
2018-09-18T14:29:54.110Z,-50
2018-09-18T14:30:49.199Z,-46
2018-09-18T14:31:47.245Z,-47
2018-09-18T14:32:50.573Z,-48
2018-09-18T14:33:51.458Z,-47
2018-09-18T14:34:53.589Z,-47
2018-09-18T14:37:04.698Z,-53
2018-09-18T14:38:02.871Z,-49
2018-09-18T14:39:08.315Z,-49
2018-09-18T14:40:06.034Z,-48
2018-09-18T14:41:04.440Z,-46
2018-09-18T14:42:02.360Z,-48
2018-09-18T14:43:00.194Z,-46
2018-09-18T14:43:55.203Z,-48
2018-09-18T14:44:52.525Z,-49
2018-09-18T14:47:05.892Z,-48
2018-09-18T14:48:06.396Z,-48
2018-09-18T14:49:04.782Z,-45
2018-09-18T14:50:04.539Z,-46
2018-09-18T14:51:07.491Z,-48
2018-09-18T14:52:05.552Z,-48
2018-09-18T14:53:03.409Z,-47
2018-09-18T14:54:02.840Z,-47
2018-09-18T14:55:01.014Z,-47
2018-09-18T14:55:57.812Z,-47
2018-09-18T14:56:59.958Z,-46
2018-09-18T14:58:02.485Z,-46
2018-09-18T15:00:10.841Z,-48
2018-09-18T15:01:09.618Z,-47
2018-09-18T15:02:04.308Z,-48
2018-09-18T15:03:02.858Z,-47
2018-09-18T15:04:09.524Z,-46
2018-09-18T15:05:07.699Z,-46
2018-09-18T15:06:06.781Z,-47
2018-09-18T15:07:04.788Z,-48
2018-09-18T15:08:08.265Z,-47
2018-09-18T15:09:07.503Z,-45
2018-09-18T15:10:02.850Z,-47
2018-09-18T15:12:13.511Z,-47
2018-09-18T15:13:11.419Z,-46
2018-09-18T15:14:10.975Z,-46